Chopin — ZDFE4 — position and weather

sailwx.info

Track history (hours):
 
Tides and Currents Weather Stations Pressure Air Temp Water Temp Dewpoint Dewpoint Depression Visibility Wind Speed Wind Dir Waves Ship Positions

Chopin

Last reported at 2014-Dec-20 14:25 UTC. Time now 2014-Dec-22 19:32 UTC.
Position N 50°28' W 000°25'.

Length 104 m; draft 6.4 m.

Type: Cargo ship. MMSI: 236099000.

Date/timePositionNaut miles runAvg speedWind from/ knotsBaromVisibWave heightAir tempDewpointWater temp
2014-Dec-20 14:25N 50°28' W 000°25'10 9.6
2014-Dec-20 13:23N 50°31' W 000°10'8 9.4
2014-Dec-20 12:31N 50°33' E 000°02'9 8.8
2014-Dec-20 11:28N 50°35' E 000°17'7 8.3
2014-Dec-20 10:33N 50°37' E 000°28'8 7.6
2014-Dec-20 09:33N 50°41' E 000°39'7 7.3
2014-Dec-20 08:33N 50°45' E 000°48'7 7.2
2014-Dec-20 07:33N 50°49' E 000°57'8 8.0
2014-Dec-20 06:32N 50°54' E 001°08'9 9.7
2014-Dec-20 05:33N 51°00' E 001°19'1110.7
2014-Dec-20 04:33N 51°07' E 001°32'1010.0
2014-Dec-20 03:33N 51°14' E 001°44'9 9.2
2014-Dec-20 02:33N 51°22' E 001°50'8 8.0
2014-Dec-20 01:33N 51°29' E 001°57'7 6.9
2014-Dec-20 00:33N 51°34' E 002°04'6 6.2
2014-Dec-19 23:33N 51°38' E 002°11'103 6.9
2014-Dec-19 08:33N 52°57' E 004°00'8 7.7
2014-Dec-19 07:33N 53°02' E 004°10'16 6.8
2014-Dec-19 05:09N 53°15' E 004°28'3 5.4
2014-Dec-19 04:32N 53°18' E 004°30'5 5.3
2014-Dec-19 03:33N 53°22' E 004°34'5 5.1
2014-Dec-19 02:33N 53°27' E 004°37'5 4.7
2014-Dec-19 01:33N 53°30' E 004°43'5 4.6
2014-Dec-19 00:33N 53°32' E 004°51'5 4.8
2014-Dec-18 23:33N 53°33' E 004°58'6 6.0
2014-Dec-18 22:33N 53°35' E 005°08'7 7.0
2014-Dec-18 21:33N 53°37' E 005°19'7 6.7
2014-Dec-18 20:33N 53°40' E 005°30'7 6.5
2014-Dec-18 19:33N 53°42' E 005°40'6 6.4
2014-Dec-18 18:33N 53°44' E 005°50'6 6.2
2014-Dec-18 17:32N 53°46' E 006°00'13 6.2
2014-Dec-18 15:31N 53°50' E 006°20'32 9.3
2014-Dec-18 12:06N 53°58' E 007°13'910.4
2014-Dec-18 11:15N 53°60' E 007°27'710.1
2014-Dec-18 10:33N 54°02' E 007°39'1010.0
2014-Dec-18 09:33N 54°01' E 007°56'1010.1
2014-Dec-18 08:33N 54°00' E 008°13'10 9.6
2014-Dec-18 07:33N 53°59' E 008°29'8 8.2
2014-Dec-18 06:33N 53°55' E 008°41'8 7.8
2014-Dec-18 05:33N 53°51' E 008°52'10 9.6
2014-Dec-18 04:33N 53°53' E 009°08'1 0.9
2014-Dec-18 03:33N 53°54' E 009°09'8 8.1
2014-Dec-18 02:33N 54°00' E 009°18'9 8.5
2014-Dec-18 01:29N 54°09' E 009°22'8 8.4
2014-Dec-18 00:29N 54°13' E 009°35'7 7.7
2014-Dec-17 23:33N 54°18' E 009°43'7 7.2
2014-Dec-17 22:33N 54°21' E 009°54'6 5.5
2014-Dec-17 21:33N 54°22' E 010°04'3 2.8
2014-Dec-17 20:33N 54°22' E 010°08'3 3.2
2014-Dec-17 19:33N 54°24' E 010°12'10 9.6
2014-Dec-17 18:33N 54°31' E 010°23'37 8.7
2014-Dec-17 14:15N 54°31' E 011°28'6 8.5
2014-Dec-17 13:33N 54°29' E 011°37'9 9.4
2014-Dec-17 12:33N 54°26' E 011°52'9 8.8
2014-Dec-17 11:31N 54°27' E 012°08'21 8.7
2014-Dec-17 09:06N 54°43' E 012°31'5 9.2
2014-Dec-17 08:33N 54°46' E 012°38'36 8.2
2014-Dec-17 04:06N 54°59' E 013°37'5 7.6
2014-Dec-17 03:29N 55°01' E 013°45'7 7.7
2014-Dec-17 02:33N 55°03' E 013°57'7 7.4
2014-Dec-17 01:33N 55°07' E 014°07'8 8.2
2014-Dec-17 00:33N 55°14' E 014°17'8 8.3
2014-Dec-16 23:33N 55°20' E 014°26'8 8.5
2014-Dec-16 22:33N 55°27' E 014°36'8 8.3
2014-Dec-16 21:33N 55°31' E 014°48'9 9.0
2014-Dec-16 20:33N 55°35' E 015°02'361 7.1
2014-Dec-14 17:27N 59°38' E 023°21'8 8.8
2014-Dec-14 16:33N 59°40' E 023°37'9 9.2
2014-Dec-14 15:33N 59°43' E 023°54'9 9.2
2014-Dec-14 14:31N 59°45' E 024°12'9 8.9
2014-Dec-14 13:33N 59°48' E 024°29'64 9.2
2014-Dec-14 06:31N 60°02' E 026°34'8 8.7
2014-Dec-14 05:33N 60°00' E 026°51'  
2014-Dec-11 21:06N 59°53' E 030°14'0 0.0
2014-Dec-11 20:33N 59°53' E 030°14'0 0.0
2014-Dec-11 19:15N 59°53' E 030°14'0 0.0
2014-Dec-11 14:32N 59°53' E 030°14'0 0.0
2014-Dec-11 12:20N 59°53' E 030°14'0 0.0
2014-Dec-11 11:32N 59°53' E 030°14'0 0.0
2014-Dec-11 10:32N 59°53' E 030°14'0 0.0
2014-Dec-11 09:29N 59°53' E 030°14'0 0.0
2014-Dec-11 08:29N 59°53' E 030°14'0 0.0
2014-Dec-11 07:17N 59°53' E 030°14'0 0.0
2014-Dec-11 06:29N 59°53' E 030°14'0 0.0
2014-Dec-11 05:32N 59°53' E 030°14'0 0.0
2014-Dec-11 04:32N 59°53' E 030°14'0 0.0
2014-Dec-11 03:31N 59°53' E 030°14'  
Track history (hours):
 
Tides and Currents Weather Stations Pressure Air Temp Water Temp Dewpoint Dewpoint Depression Visibility Wind Speed Wind Dir Waves Ship Positions

Chopin

Last reported at 2014-Dec-20 14:25 UTC. Time now 2014-Dec-22 19:32 UTC.
Position N 50°28' W 000°25'.

Length 104 m; draft 6.4 m.

Type: Cargo ship. MMSI: 236099000.

Date/timePositionNaut miles runAvg speedWind from/ knotsBaromVisibWave heightAir tempDewpointWater temp
2014-Dec-20 14:25N 50°28' W 000°25'10 9.6
2014-Dec-20 13:23N 50°31' W 000°10'8 9.4
2014-Dec-20 12:31N 50°33' E 000°02'9 8.8
2014-Dec-20 11:28N 50°35' E 000°17'7 8.3
2014-Dec-20 10:33N 50°37' E 000°28'8 7.6
2014-Dec-20 09:33N 50°41' E 000°39'7 7.3
2014-Dec-20 08:33N 50°45' E 000°48'7 7.2
2014-Dec-20 07:33N 50°49' E 000°57'8 8.0
2014-Dec-20 06:32N 50°54' E 001°08'9 9.7
2014-Dec-20 05:33N 51°00' E 001°19'1110.7
2014-Dec-20 04:33N 51°07' E 001°32'1010.0
2014-Dec-20 03:33N 51°14' E 001°44'9 9.2
2014-Dec-20 02:33N 51°22' E 001°50'8 8.0
2014-Dec-20 01:33N 51°29' E 001°57'7 6.9
2014-Dec-20 00:33N 51°34' E 002°04'6 6.2
2014-Dec-19 23:33N 51°38' E 002°11'103 6.9
2014-Dec-19 08:33N 52°57' E 004°00'8 7.7
2014-Dec-19 07:33N 53°02' E 004°10'16 6.8
2014-Dec-19 05:09N 53°15' E 004°28'3 5.4
2014-Dec-19 04:32N 53°18' E 004°30'5 5.3
2014-Dec-19 03:33N 53°22' E 004°34'5 5.1
2014-Dec-19 02:33N 53°27' E 004°37'5 4.7
2014-Dec-19 01:33N 53°30' E 004°43'5 4.6
2014-Dec-19 00:33N 53°32' E 004°51'5 4.8
2014-Dec-18 23:33N 53°33' E 004°58'6 6.0
2014-Dec-18 22:33N 53°35' E 005°08'7 7.0
2014-Dec-18 21:33N 53°37' E 005°19'7 6.7
2014-Dec-18 20:33N 53°40' E 005°30'7 6.5
2014-Dec-18 19:33N 53°42' E 005°40'6 6.4
2014-Dec-18 18:33N 53°44' E 005°50'6 6.2
2014-Dec-18 17:32N 53°46' E 006°00'13 6.2
2014-Dec-18 15:31N 53°50' E 006°20'32 9.3
2014-Dec-18 12:06N 53°58' E 007°13'910.4
2014-Dec-18 11:15N 53°60' E 007°27'710.1
2014-Dec-18 10:33N 54°02' E 007°39'1010.0
2014-Dec-18 09:33N 54°01' E 007°56'1010.1
2014-Dec-18 08:33N 54°00' E 008°13'10 9.6
2014-Dec-18 07:33N 53°59' E 008°29'8 8.2
2014-Dec-18 06:33N 53°55' E 008°41'8 7.8
2014-Dec-18 05:33N 53°51' E 008°52'10 9.6
2014-Dec-18 04:33N 53°53' E 009°08'1 0.9
2014-Dec-18 03:33N 53°54' E 009°09'8 8.1
2014-Dec-18 02:33N 54°00' E 009°18'9 8.5
2014-Dec-18 01:29N 54°09' E 009°22'8 8.4
2014-Dec-18 00:29N 54°13' E 009°35'7 7.7
2014-Dec-17 23:33N 54°18' E 009°43'7 7.2
2014-Dec-17 22:33N 54°21' E 009°54'6 5.5
2014-Dec-17 21:33N 54°22' E 010°04'3 2.8
2014-Dec-17 20:33N 54°22' E 010°08'3 3.2
2014-Dec-17 19:33N 54°24' E 010°12'10 9.6
2014-Dec-17 18:33N 54°31' E 010°23'37 8.7
2014-Dec-17 14:15N 54°31' E 011°28'6 8.5
2014-Dec-17 13:33N 54°29' E 011°37'9 9.4
2014-Dec-17 12:33N 54°26' E 011°52'9 8.8
2014-Dec-17 11:31N 54°27' E 012°08'21 8.7
2014-Dec-17 09:06N 54°43' E 012°31'5 9.2
2014-Dec-17 08:33N 54°46' E 012°38'36 8.2
2014-Dec-17 04:06N 54°59' E 013°37'5 7.6
2014-Dec-17 03:29N 55°01' E 013°45'7 7.7
2014-Dec-17 02:33N 55°03' E 013°57'7 7.4
2014-Dec-17 01:33N 55°07' E 014°07'8 8.2
2014-Dec-17 00:33N 55°14' E 014°17'8 8.3
2014-Dec-16 23:33N 55°20' E 014°26'8 8.5
2014-Dec-16 22:33N 55°27' E 014°36'8 8.3
2014-Dec-16 21:33N 55°31' E 014°48'9 9.0
2014-Dec-16 20:33N 55°35' E 015°02'361 7.1
2014-Dec-14 17:27N 59°38' E 023°21'8 8.8
2014-Dec-14 16:33N 59°40' E 023°37'9 9.2
2014-Dec-14 15:33N 59°43' E 023°54'9 9.2
2014-Dec-14 14:31N 59°45' E 024°12'9 8.9
2014-Dec-14 13:33N 59°48' E 024°29'64 9.2
2014-Dec-14 06:31N 60°02' E 026°34'8 8.7
2014-Dec-14 05:33N 60°00' E 026°51'  
2014-Dec-11 21:06N 59°53' E 030°14'0 0.0
2014-Dec-11 20:33N 59°53' E 030°14'0 0.0
2014-Dec-11 19:15N 59°53' E 030°14'0 0.0
2014-Dec-11 14:32N 59°53' E 030°14'0 0.0
2014-Dec-11 12:20N 59°53' E 030°14'0 0.0
2014-Dec-11 11:32N 59°53' E 030°14'0 0.0
2014-Dec-11 10:32N 59°53' E 030°14'0 0.0
2014-Dec-11 09:29N 59°53' E 030°14'0 0.0
2014-Dec-11 08:29N 59°53' E 030°14'0 0.0
2014-Dec-11 07:17N 59°53' E 030°14'0 0.0
2014-Dec-11 06:29N 59°53' E 030°14'0 0.0
2014-Dec-11 05:32N 59°53' E 030°14'0 0.0
2014-Dec-11 04:32N 59°53' E 030°14'0 0.0
2014-Dec-11 03:31N 59°53' E 030°14'  

Dump ship's entire track history